createdAt,value
2023-07-18T00:02:00.066Z,15.27
2023-07-18T00:04:04.224Z,15.26
2023-07-18T00:06:07.813Z,15.27
2023-07-18T00:08:11.443Z,15.27
2023-07-18T00:10:14.658Z,15.28
2023-07-18T00:12:18.013Z,15.27
2023-07-18T00:14:21.299Z,15.25
2023-07-18T00:16:23.565Z,15.22
2023-07-18T00:18:26.986Z,15.19
2023-07-18T00:20:32.187Z,15.15
2023-07-18T00:22:34.595Z,15.15
2023-07-18T00:24:38.073Z,15.13
2023-07-18T00:26:41.472Z,15.12
2023-07-18T00:28:44.757Z,15.10
2023-07-18T00:30:48.609Z,15.11
2023-07-18T00:32:50.980Z,15.10
2023-07-18T00:34:57.625Z,15.08
2023-07-18T00:37:02.961Z,15.07
2023-07-18T00:39:06.467Z,15.04
2023-07-18T00:41:12.320Z,15.04
2023-07-18T00:43:16.249Z,15.02
2023-07-18T00:45:20.944Z,14.99
2023-07-18T00:47:25.480Z,14.98
2023-07-18T00:49:29.935Z,14.94
2023-07-18T00:51:33.376Z,14.93
2023-07-18T00:53:40.048Z,14.92
2023-07-18T00:55:44.841Z,14.92
2023-07-18T00:57:49.134Z,14.92
2023-07-18T00:59:54.051Z,14.89
2023-07-18T01:01:58.277Z,14.88
2023-07-18T01:04:01.611Z,14.86
2023-07-18T01:06:05.080Z,14.85
2023-07-18T01:08:08.410Z,14.82
2023-07-18T01:10:24.337Z,14.83
2023-07-18T01:12:27.762Z,14.83
2023-07-18T01:14:31.366Z,14.82
2023-07-18T01:16:34.706Z,14.82
2023-07-18T01:18:38.477Z,14.82
2023-07-18T01:20:42.172Z,14.80
2023-07-18T01:22:47.636Z,14.80
2023-07-18T01:24:50.973Z,14.77
2023-07-18T01:26:54.247Z,14.74
2023-07-18T01:28:57.569Z,14.74
2023-07-18T01:30:59.926Z,14.70
2023-07-18T01:33:04.486Z,14.69
2023-07-18T01:35:09.597Z,14.69
2023-07-18T01:37:16.481Z,14.70
2023-07-18T01:39:21.122Z,14.69
2023-07-18T01:41:24.475Z,14.69
2023-07-18T01:43:28.028Z,14.69
2023-07-18T01:45:32.186Z,14.68
2023-07-18T01:47:36.027Z,14.65
2023-07-18T01:49:39.373Z,14.65
2023-07-18T01:51:43.900Z,14.63
2023-07-18T01:53:49.226Z,14.63
2023-07-18T01:55:55.823Z,14.61
2023-07-18T01:57:59.250Z,14.61
2023-07-18T02:00:03.029Z,14.58
2023-07-18T02:02:07.761Z,14.54
2023-07-18T02:04:11.094Z,14.53
2023-07-18T02:06:14.404Z,14.53
2023-07-18T02:08:18.187Z,14.48
2023-07-18T02:10:23.495Z,14.45
2023-07-18T02:12:28.518Z,14.44
2023-07-18T02:14:31.888Z,14.42
2023-07-18T02:16:35.430Z,14.41
2023-07-18T02:18:39.066Z,14.39
2023-07-18T02:20:42.364Z,14.30
2023-07-18T02:22:46.292Z,14.20
2023-07-18T02:24:50.400Z,14.10
2023-07-18T02:26:55.374Z,14.03
2023-07-18T02:29:00.130Z,13.98
2023-07-18T02:31:04.748Z,13.91
2023-07-18T02:33:09.416Z,13.86
2023-07-18T02:35:19.205Z,13.83
2023-07-18T02:37:24.363Z,13.74
2023-07-18T02:39:27.668Z,13.64
2023-07-18T02:41:31.008Z,13.52
2023-07-18T02:43:34.292Z,13.42
2023-07-18T02:45:39.059Z,13.33
2023-07-18T02:47:43.751Z,13.25
2023-07-18T02:49:47.085Z,13.21
2023-07-18T02:51:50.760Z,13.18
2023-07-18T02:53:54.797Z,13.15
2023-07-18T02:55:58.209Z,13.13
2023-07-18T02:58:01.842Z,13.09
2023-07-18T03:00:08.293Z,13.07
2023-07-18T03:02:14.076Z,13.06
2023-07-18T03:04:17.341Z,13.06
2023-07-18T03:06:20.706Z,13.05
2023-07-18T03:08:24.400Z,13.03
2023-07-18T03:10:27.736Z,13.01
2023-07-18T03:12:31.094Z,12.97
2023-07-18T03:14:34.874Z,12.93
2023-07-18T03:16:38.235Z,12.86
2023-07-18T03:18:43.043Z,12.82
2023-07-18T03:20:46.586Z,12.81
2023-07-18T03:22:51.478Z,12.82
2023-07-18T03:24:57.159Z,12.83
2023-07-18T03:27:00.502Z,12.83
2023-07-18T03:29:08.227Z,12.85
2023-07-18T03:31:10.699Z,12.86
2023-07-18T03:33:16.641Z,12.85
2023-07-18T03:35:21.595Z,12.86
2023-07-18T03:37:25.275Z,12.89
2023-07-18T03:39:28.586Z,12.93
2023-07-18T03:41:32.064Z,12.95
2023-07-18T03:43:35.450Z,12.98
2023-07-18T03:45:38.744Z,13.02
2023-07-18T03:47:41.371Z,13.02
2023-07-18T03:49:44.748Z,13.04
2023-07-18T03:51:49.483Z,13.04
2023-07-18T03:53:53.140Z,13.06
2023-07-18T03:56:04.217Z,13.06
2023-07-18T03:58:07.577Z,13.08
2023-07-18T04:00:18.141Z,13.09
2023-07-18T04:02:21.623Z,13.09
2023-07-18T04:04:25.993Z,13.13
2023-07-18T04:06:29.252Z,13.16
2023-07-18T04:08:33.153Z,13.19
2023-07-18T04:10:36.442Z,13.19
2023-07-18T04:12:39.807Z,13.19
2023-07-18T04:14:43.700Z,13.21
2023-07-18T04:16:47.037Z,13.23
2023-07-18T04:18:50.512Z,13.25
2023-07-18T04:21:01.572Z,13.28
2023-07-18T04:23:04.831Z,13.28
2023-07-18T04:25:10.623Z,13.30
2023-07-18T04:27:13.913Z,13.29
2023-07-18T04:29:18.092Z,13.30
2023-07-18T04:31:22.319Z,13.31
2023-07-18T04:33:27.012Z,13.34
2023-07-18T04:35:29.332Z,13.35
2023-07-18T04:37:32.613Z,13.35
2023-07-18T04:39:35.994Z,13.32
2023-07-18T04:41:53.659Z,13.18
2023-07-18T04:43:58.745Z,13.01
2023-07-18T04:46:02.512Z,12.91
2023-07-18T04:48:06.371Z,12.86
2023-07-18T04:50:11.828Z,12.91
2023-07-18T04:52:16.533Z,12.99
2023-07-18T04:54:20.282Z,13.06
2023-07-18T04:56:23.705Z,13.12
2023-07-18T04:58:29.392Z,13.16
2023-07-18T05:00:32.811Z,13.20
2023-07-18T05:02:35.082Z,13.15
2023-07-18T05:04:38.509Z,13.17
2023-07-18T05:06:41.900Z,13.23
2023-07-18T05:08:45.172Z,13.29
2023-07-18T05:10:48.492Z,13.33
2023-07-18T05:12:52.518Z,13.37
2023-07-18T05:14:57.343Z,13.41
2023-07-18T05:17:00.731Z,13.46
2023-07-18T05:19:04.104Z,13.49
2023-07-18T05:21:07.370Z,13.53
2023-07-18T05:23:09.891Z,13.57
2023-07-18T05:25:14.854Z,13.61
2023-07-18T05:27:18.362Z,13.62
2023-07-18T05:29:21.592Z,13.65
2023-07-18T05:31:26.346Z,13.68
2023-07-18T05:33:29.403Z,13.67
2023-07-18T05:35:33.185Z,13.70
2023-07-18T05:37:35.506Z,13.70
2023-07-18T05:39:38.814Z,13.73
2023-07-18T05:41:42.175Z,13.76
2023-07-18T05:43:44.473Z,13.77
2023-07-18T05:45:47.862Z,13.72
2023-07-18T05:47:52.581Z,13.65
2023-07-18T05:49:56.178Z,13.52
2023-07-18T05:51:59.929Z,13.41
2023-07-18T05:54:05.541Z,13.34
2023-07-18T05:56:08.859Z,13.31
2023-07-18T05:58:12.099Z,13.24
2023-07-18T06:00:16.631Z,13.18
2023-07-18T06:02:21.484Z,13.15
2023-07-18T06:04:25.948Z,13.14
2023-07-18T06:06:29.324Z,13.09
2023-07-18T06:08:32.562Z,13.05
2023-07-18T06:10:36.064Z,13.01
2023-07-18T06:12:39.464Z,12.99
2023-07-18T06:14:42.788Z,12.95
2023-07-18T06:16:46.552Z,12.88
2023-07-18T06:18:49.928Z,12.85
2023-07-18T06:20:55.031Z,12.83
2023-07-18T06:22:58.316Z,12.81
2023-07-18T06:25:01.636Z,12.77
2023-07-18T06:27:05.295Z,12.75
2023-07-18T06:29:08.552Z,12.73
2023-07-18T06:31:12.012Z,12.73
2023-07-18T06:33:17.377Z,12.73
2023-07-18T06:35:23.572Z,12.73
2023-07-18T06:37:29.017Z,12.73
2023-07-18T06:39:32.508Z,12.71
2023-07-18T06:41:35.927Z,12.72
2023-07-18T06:43:39.759Z,12.72
2023-07-18T06:45:46.288Z,12.73
2023-07-18T06:47:50.175Z,12.75
2023-07-18T06:49:53.860Z,12.72
2023-07-18T06:51:57.528Z,12.68
2023-07-18T06:54:02.772Z,12.67
2023-07-18T06:56:06.818Z,12.67
2023-07-18T06:58:11.050Z,12.64
2023-07-18T07:00:15.652Z,12.61
2023-07-18T07:02:19.226Z,12.61
2023-07-18T07:04:23.203Z,12.63
2023-07-18T07:06:26.036Z,12.62
2023-07-18T07:08:30.898Z,12.62
2023-07-18T07:10:35.644Z,12.64
2023-07-18T07:12:39.395Z,12.65
2023-07-18T07:14:42.994Z,12.69
2023-07-18T07:16:46.900Z,12.73
2023-07-18T07:18:52.151Z,12.79
2023-07-18T07:20:56.138Z,12.84
2023-07-18T07:22:59.946Z,12.85
2023-07-18T07:25:04.426Z,12.82
2023-07-18T07:27:10.718Z,12.81
2023-07-18T07:29:15.667Z,12.80
2023-07-18T07:31:21.207Z,12.79
2023-07-18T07:33:27.039Z,12.79
2023-07-18T07:35:31.336Z,12.76
2023-07-18T07:37:35.145Z,12.77
2023-07-18T07:39:40.377Z,12.78
2023-07-18T07:41:44.391Z,12.80
2023-07-18T07:43:49.362Z,12.80
2023-07-18T07:45:52.853Z,12.74
2023-07-18T07:47:56.525Z,12.68
2023-07-18T07:50:01.490Z,12.65
2023-07-18T07:52:05.963Z,12.62
2023-07-18T07:54:09.636Z,12.65
2023-07-18T07:56:13.263Z,12.68
2023-07-18T07:58:16.884Z,12.73
2023-07-18T08:00:22.705Z,12.77
2023-07-18T08:02:26.480Z,12.80
2023-07-18T08:04:30.414Z,12.80
2023-07-18T08:06:34.146Z,12.82
2023-07-18T08:08:38.248Z,12.84
2023-07-18T08:10:44.427Z,12.88
2023-07-18T08:12:50.172Z,12.91
2023-07-18T08:14:54.426Z,12.97
2023-07-18T08:16:59.452Z,13.00
2023-07-18T08:19:03.193Z,13.03
2023-07-18T08:21:06.904Z,13.06
2023-07-18T08:23:10.498Z,13.09
2023-07-18T08:25:14.591Z,13.14
2023-07-18T08:27:18.645Z,13.18
2023-07-18T08:29:22.686Z,13.24
2023-07-18T08:31:26.560Z,13.31
2023-07-18T08:33:31.977Z,13.40
2023-07-18T08:35:34.749Z,13.47
2023-07-18T08:37:38.498Z,13.51
2023-07-18T08:39:42.846Z,13.52
2023-07-18T08:41:49.066Z,13.50
2023-07-18T08:43:54.045Z,13.48
2023-07-18T08:46:03.310Z,13.54
2023-07-18T08:48:07.396Z,13.63
2023-07-18T08:50:13.544Z,13.71
2023-07-18T08:52:18.924Z,13.70
2023-07-18T08:54:22.378Z,13.73
2023-07-18T08:56:29.287Z,13.76
2023-07-18T08:58:34.086Z,13.77
2023-07-18T09:00:38.054Z,13.77
2023-07-18T09:02:42.624Z,13.73
2023-07-18T09:04:50.111Z,13.71
2023-07-18T09:07:01.337Z,13.67
2023-07-18T09:09:16.405Z,13.65
2023-07-18T09:11:22.346Z,13.60
2023-07-18T09:13:28.613Z,13.57
2023-07-18T09:15:36.557Z,13.52
2023-07-18T09:17:41.586Z,13.45
2023-07-18T09:19:47.062Z,13.40
2023-07-18T09:22:01.281Z,13.43
2023-07-18T09:24:07.054Z,13.45
2023-07-18T09:26:12.290Z,13.51
2023-07-18T09:28:15.835Z,13.50
2023-07-18T09:30:23.917Z,13.48
2023-07-18T09:32:27.847Z,13.44
2023-07-18T09:34:31.513Z,13.42
2023-07-18T09:36:36.933Z,13.44
2023-07-18T09:38:40.884Z,13.45
2023-07-18T09:40:47.188Z,13.45
2023-07-18T09:42:55.716Z,13.47
2023-07-18T09:45:04.451Z,13.47
2023-07-18T09:47:15.876Z,13.49
2023-07-18T09:49:20.934Z,13.48
2023-07-18T09:51:26.082Z,13.45
2023-07-18T09:53:33.208Z,13.43
2023-07-18T09:55:37.138Z,13.43
2023-07-18T09:57:44.003Z,13.46
2023-07-18T09:59:51.212Z,13.43
2023-07-18T10:01:55.753Z,13.47
2023-07-18T10:04:01.838Z,13.53
2023-07-18T10:06:13.162Z,13.60
2023-07-18T10:08:20.860Z,13.69
2023-07-18T10:10:27.601Z,13.78
2023-07-18T10:12:37.493Z,13.87
2023-07-18T10:14:58.260Z,13.96
2023-07-18T10:17:08.943Z,14.04
2023-07-18T10:19:20.854Z,14.12
2023-07-18T10:21:33.076Z,14.19
2023-07-18T10:23:46.051Z,14.28
2023-07-18T10:25:58.017Z,14.33
2023-07-18T10:28:04.437Z,14.34
2023-07-18T10:30:10.545Z,14.34
2023-07-18T10:32:15.648Z,14.32
2023-07-18T10:34:20.248Z,14.34
2023-07-18T10:36:26.095Z,14.37
2023-07-18T10:38:38.073Z,14.41
2023-07-18T10:40:45.258Z,14.47
2023-07-18T10:42:49.483Z,14.50
2023-07-18T10:44:56.734Z,14.56
2023-07-18T10:47:01.915Z,14.67
2023-07-18T10:49:05.840Z,14.76
2023-07-18T10:51:11.178Z,14.87
2023-07-18T10:53:16.221Z,14.93
2023-07-18T10:55:19.915Z,14.97
2023-07-18T10:57:29.689Z,15.02
2023-07-18T10:59:35.323Z,15.06
2023-07-18T11:01:43.577Z,15.13
2023-07-18T11:03:48.686Z,15.12
2023-07-18T11:05:53.656Z,15.10
2023-07-18T11:07:57.635Z,15.08
2023-07-18T11:10:02.022Z,15.13
2023-07-18T11:12:06.679Z,15.19
2023-07-18T11:14:12.072Z,15.27
2023-07-18T11:16:17.098Z,15.34
2023-07-18T11:18:20.779Z,15.39
2023-07-18T11:20:26.001Z,15.48
2023-07-18T11:22:30.941Z,15.54
2023-07-18T11:24:35.727Z,15.60
2023-07-18T11:26:40.040Z,15.77
2023-07-18T11:28:45.408Z,15.93
2023-07-18T11:30:49.721Z,16.00
2023-07-18T11:32:54.675Z,16.08
2023-07-18T11:35:01.398Z,16.27
2023-07-18T11:37:09.548Z,16.44
2023-07-18T11:39:23.575Z,16.56
2023-07-18T11:41:34.829Z,16.67
2023-07-18T11:43:40.585Z,16.66
2023-07-18T11:45:45.052Z,16.79
2023-07-18T11:47:50.685Z,16.95
2023-07-18T11:49:54.703Z,16.95
2023-07-18T11:51:58.144Z,16.98
2023-07-18T11:54:05.088Z,16.99
2023-07-18T11:56:08.884Z,17.00
2023-07-18T11:58:12.259Z,17.05
2023-07-18T12:00:17.078Z,17.02
2023-07-18T12:02:21.121Z,16.87
2023-07-18T12:04:25.854Z,16.90
2023-07-18T12:06:29.792Z,16.96
2023-07-18T12:08:33.721Z,17.06
2023-07-18T12:10:39.434Z,17.15
2023-07-18T12:12:43.454Z,17.07
2023-07-18T12:14:46.901Z,17.04
2023-07-18T12:16:51.076Z,17.06
2023-07-18T12:18:55.718Z,17.11
2023-07-18T12:21:00.366Z,17.01
2023-07-18T12:23:04.616Z,17.07
2023-07-18T12:25:10.005Z,17.22
2023-07-18T12:27:16.591Z,17.37
2023-07-18T12:29:20.534Z,17.36
2023-07-18T12:31:23.893Z,17.22
2023-07-18T12:33:30.307Z,17.12
2023-07-18T12:35:34.208Z,17.06
2023-07-18T12:37:39.063Z,17.08
2023-07-18T12:39:42.892Z,17.04
2023-07-18T12:41:46.746Z,17.04
2023-07-18T12:43:51.821Z,17.08
2023-07-18T12:45:55.699Z,17.11
2023-07-18T12:47:59.593Z,17.20
2023-07-18T12:50:03.317Z,17.19
2023-07-18T12:52:09.247Z,17.22
2023-07-18T12:54:12.888Z,17.18
2023-07-18T12:56:17.049Z,17.21
2023-07-18T12:58:20.734Z,17.25
2023-07-18T13:00:25.626Z,17.22
2023-07-18T13:02:30.335Z,17.14
2023-07-18T13:04:34.001Z,17.09
2023-07-18T13:06:37.459Z,17.14
2023-07-18T13:08:41.114Z,17.25
2023-07-18T13:10:44.934Z,17.38
2023-07-18T13:12:49.162Z,17.50
2023-07-18T13:14:52.801Z,17.54
2023-07-18T13:16:57.894Z,17.46
2023-07-18T13:19:02.133Z,17.38
2023-07-18T13:21:06.314Z,17.35
2023-07-18T13:23:10.254Z,17.28
2023-07-18T13:25:14.710Z,17.18
2023-07-18T13:27:19.964Z,17.22
2023-07-18T13:29:23.540Z,17.39
2023-07-18T13:31:26.923Z,17.50
2023-07-18T13:33:32.174Z,17.51
2023-07-18T13:35:37.074Z,17.49
2023-07-18T13:37:41.473Z,17.41
2023-07-18T13:39:45.236Z,17.36
2023-07-18T13:41:48.870Z,17.21
2023-07-18T13:43:52.595Z,17.13
2023-07-18T13:45:56.545Z,16.99
2023-07-18T13:48:00.401Z,16.97
2023-07-18T13:50:17.702Z,16.96
2023-07-18T13:52:23.385Z,16.95
2023-07-18T13:54:27.040Z,16.98
2023-07-18T13:56:31.104Z,17.01
2023-07-18T13:58:34.700Z,16.99
2023-07-18T14:00:39.019Z,17.01
2023-07-18T14:02:42.727Z,17.00
2023-07-18T14:04:46.496Z,16.96
2023-07-18T14:06:51.727Z,16.89
2023-07-18T14:08:55.451Z,16.86
2023-07-18T14:10:59.179Z,16.90
2023-07-18T14:13:02.827Z,16.95
2023-07-18T14:15:07.231Z,16.90
2023-07-18T14:17:10.784Z,16.86
2023-07-18T14:19:15.120Z,16.94
2023-07-18T14:21:18.949Z,17.00
2023-07-18T14:23:24.194Z,16.99
2023-07-18T14:25:27.981Z,17.06
2023-07-18T14:27:31.650Z,17.07
2023-07-18T14:29:35.035Z,17.00
2023-07-18T14:31:40.201Z,16.96
2023-07-18T14:33:51.743Z,17.00
2023-07-18T14:36:07.705Z,17.05
2023-07-18T14:38:11.551Z,17.08
2023-07-18T14:40:16.554Z,17.07
2023-07-18T14:42:20.914Z,17.09
2023-07-18T14:44:24.873Z,17.12
2023-07-18T14:46:28.488Z,17.20
2023-07-18T14:48:32.133Z,17.30
2023-07-18T14:50:35.957Z,17.41
2023-07-18T14:52:39.609Z,17.46
2023-07-18T14:54:43.330Z,17.58
2023-07-18T14:56:48.644Z,17.70
2023-07-18T14:58:51.221Z,17.86
2023-07-18T15:00:54.882Z,18.00
2023-07-18T15:02:58.860Z,18.10
2023-07-18T15:05:02.596Z,18.19
2023-07-18T15:07:06.599Z,18.24
2023-07-18T15:09:10.841Z,18.12
2023-07-18T15:11:14.555Z,17.93
2023-07-18T15:13:19.553Z,17.94
2023-07-18T15:15:26.139Z,17.95
2023-07-18T15:17:40.001Z,17.90
2023-07-18T15:19:50.703Z,17.93
2023-07-18T15:21:55.010Z,17.93
2023-07-18T15:23:58.872Z,17.90
2023-07-18T15:26:02.601Z,17.92
2023-07-18T15:28:07.409Z,17.84
2023-07-18T15:30:13.419Z,17.82
2023-07-18T15:32:17.202Z,17.75
2023-07-18T15:34:21.000Z,17.72
2023-07-18T15:36:25.187Z,17.73
2023-07-18T15:38:28.924Z,17.75
2023-07-18T15:40:32.480Z,17.80
2023-07-18T15:42:36.156Z,17.87
2023-07-18T15:44:39.901Z,17.97
2023-07-18T15:46:45.995Z,18.02
2023-07-18T15:48:49.865Z,17.96
2023-07-18T15:50:53.591Z,17.87
2023-07-18T15:52:57.132Z,17.90
2023-07-18T15:54:59.829Z,17.96
2023-07-18T15:57:03.425Z,17.96
2023-07-18T15:59:07.412Z,17.98
2023-07-18T16:01:11.455Z,18.07
2023-07-18T16:03:16.626Z,18.15
2023-07-18T16:05:20.811Z,18.23
2023-07-18T16:07:24.642Z,18.27
2023-07-18T16:09:29.705Z,18.28
2023-07-18T16:11:33.551Z,18.27
2023-07-18T16:13:37.405Z,18.25
2023-07-18T16:15:41.060Z,18.18
2023-07-18T16:17:44.912Z,18.15
2023-07-18T16:19:51.866Z,18.12
2023-07-18T16:21:55.726Z,18.11
2023-07-18T16:23:59.841Z,18.08
2023-07-18T16:26:03.484Z,18.04
2023-07-18T16:28:07.313Z,18.01
2023-07-18T16:30:11.949Z,17.98
2023-07-18T16:32:15.521Z,17.93
2023-07-18T16:34:19.272Z,17.91
2023-07-18T16:36:24.479Z,17.88
2023-07-18T16:38:29.673Z,17.84
2023-07-18T16:40:33.903Z,17.82
2023-07-18T16:42:37.534Z,17.82
2023-07-18T16:44:41.160Z,17.85
2023-07-18T16:46:44.790Z,17.87
2023-07-18T16:48:49.781Z,17.91
2023-07-18T16:50:53.488Z,17.92
2023-07-18T16:52:57.449Z,17.91
2023-07-18T16:55:01.310Z,17.90
2023-07-18T16:57:05.306Z,17.87
2023-07-18T16:59:08.766Z,17.85
2023-07-18T17:01:14.053Z,17.85
2023-07-18T17:03:16.687Z,17.84
2023-07-18T17:05:20.610Z,17.83
2023-07-18T17:07:25.070Z,17.82
2023-07-18T17:09:30.717Z,17.80
2023-07-18T17:11:34.258Z,17.72
2023-07-18T17:13:37.872Z,17.68
2023-07-18T17:15:41.443Z,17.63
2023-07-18T17:17:45.239Z,17.57
2023-07-18T17:20:04.645Z,17.48
2023-07-18T17:22:11.492Z,17.32
2023-07-18T17:24:14.205Z,17.24
2023-07-18T17:26:19.531Z,17.17
2023-07-18T17:28:22.141Z,17.13
2023-07-18T17:30:25.878Z,17.08
2023-07-18T17:32:29.706Z,17.00
2023-07-18T17:34:36.468Z,16.92
2023-07-18T17:36:40.940Z,16.97
2023-07-18T17:38:44.824Z,17.02
2023-07-18T17:40:49.693Z,17.10
2023-07-18T17:42:54.392Z,17.17
2023-07-18T17:44:58.287Z,17.26
2023-07-18T17:47:01.955Z,17.36
2023-07-18T17:49:05.855Z,17.44
2023-07-18T17:51:09.419Z,17.51
2023-07-18T17:53:15.343Z,17.58
2023-07-18T17:55:19.117Z,17.64
2023-07-18T17:57:21.600Z,17.67
2023-07-18T17:59:27.569Z,17.70
2023-07-18T18:01:32.143Z,17.76
2023-07-18T18:03:35.772Z,17.83
2023-07-18T18:05:47.105Z,17.88
2023-07-18T18:07:51.021Z,17.96
2023-07-18T18:09:53.751Z,18.05
2023-07-18T18:11:57.701Z,18.15
2023-07-18T18:14:01.216Z,18.20
2023-07-18T18:16:09.178Z,18.23
2023-07-18T18:18:13.341Z,18.17
2023-07-18T18:20:16.972Z,18.14
2023-07-18T18:22:20.739Z,18.06
2023-07-18T18:24:26.112Z,18.02
2023-07-18T18:26:29.928Z,17.94
2023-07-18T18:28:33.701Z,17.88
2023-07-18T18:30:37.436Z,17.82
2023-07-18T18:32:41.601Z,17.75
2023-07-18T18:35:00.893Z,17.70
2023-07-18T18:37:08.732Z,17.63
2023-07-18T18:39:13.498Z,17.58
2023-07-18T18:41:17.224Z,17.49
2023-07-18T18:43:20.844Z,17.41
2023-07-18T18:45:24.501Z,17.35
2023-07-18T18:47:28.299Z,17.30
2023-07-18T18:49:33.199Z,17.23
2023-07-18T18:51:37.162Z,17.16
2023-07-18T18:53:40.849Z,17.13
2023-07-18T18:55:43.414Z,17.08
2023-07-18T18:57:47.172Z,17.04
2023-07-18T18:59:51.054Z,16.99
2023-07-18T19:01:54.820Z,16.96
2023-07-18T19:03:58.499Z,16.94
2023-07-18T19:06:04.196Z,16.91
2023-07-18T19:08:08.982Z,16.85
2023-07-18T19:10:12.656Z,16.84
2023-07-18T19:12:20.162Z,16.82
2023-07-18T19:14:25.671Z,16.83
2023-07-18T19:16:38.776Z,16.82
2023-07-18T19:18:45.860Z,16.83
2023-07-18T19:20:50.025Z,16.81
2023-07-18T19:22:56.143Z,16.79
2023-07-18T19:25:00.211Z,16.76
2023-07-18T19:27:04.963Z,16.79
2023-07-18T19:29:09.035Z,16.88
2023-07-18T19:31:14.931Z,17.06
2023-07-18T19:33:20.352Z,17.21
2023-07-18T19:35:25.897Z,17.34
2023-07-18T19:37:29.715Z,17.37
2023-07-18T19:39:38.058Z,17.33
2023-07-18T19:41:43.962Z,17.24
2023-07-18T19:43:47.177Z,17.14
2023-07-18T19:45:50.742Z,17.00
2023-07-18T19:47:54.404Z,16.86
2023-07-18T19:49:59.783Z,16.77
2023-07-18T19:52:04.407Z,16.65
2023-07-18T19:54:08.242Z,16.55
2023-07-18T19:56:12.650Z,16.50
2023-07-18T19:58:16.616Z,16.48
2023-07-18T20:00:20.465Z,16.46
2023-07-18T20:02:24.420Z,16.44
2023-07-18T20:04:29.096Z,16.44
2023-07-18T20:06:33.982Z,16.47
2023-07-18T20:08:38.046Z,16.45
2023-07-18T20:10:43.363Z,16.44
2023-07-18T20:12:49.546Z,16.41
2023-07-18T20:14:54.565Z,16.38
2023-07-18T20:17:00.053Z,16.31
2023-07-18T20:19:03.783Z,16.28
2023-07-18T20:21:06.290Z,16.21
2023-07-18T20:23:11.237Z,16.15
2023-07-18T20:25:16.164Z,16.10
2023-07-18T20:27:21.287Z,16.04
2023-07-18T20:29:26.488Z,15.99
2023-07-18T20:31:31.238Z,15.94
2023-07-18T20:33:34.865Z,15.87
2023-07-18T20:35:40.826Z,15.83
2023-07-18T20:37:45.737Z,15.81
2023-07-18T20:39:49.453Z,15.77
2023-07-18T20:41:53.159Z,15.74
2023-07-18T20:43:58.270Z,15.72
2023-07-18T20:46:08.890Z,15.68
2023-07-18T20:48:13.945Z,15.63
2023-07-18T20:50:18.013Z,15.58
2023-07-18T20:52:21.819Z,15.53
2023-07-18T20:54:26.770Z,15.46
2023-07-18T20:56:30.355Z,15.42
2023-07-18T20:58:35.287Z,15.35
2023-07-18T21:00:40.121Z,15.27
2023-07-18T21:02:46.215Z,15.18
2023-07-18T21:04:50.033Z,15.09
2023-07-18T21:06:54.082Z,15.03
2023-07-18T21:08:57.900Z,14.99
2023-07-18T21:11:01.370Z,14.93
2023-07-18T21:13:07.450Z,14.89
2023-07-18T21:15:12.067Z,14.87
2023-07-18T21:17:16.426Z,14.82
2023-07-18T21:19:21.919Z,14.79
2023-07-18T21:21:27.875Z,14.78
2023-07-18T21:23:31.820Z,14.76
2023-07-18T21:25:35.497Z,14.72
2023-07-18T21:27:39.237Z,14.69
2023-07-18T21:29:45.354Z,14.67
2023-07-18T21:31:49.048Z,14.65
2023-07-18T21:33:52.714Z,14.62
2023-07-18T21:35:58.411Z,14.61
2023-07-18T21:38:02.003Z,14.59
2023-07-18T21:40:08.202Z,14.55
2023-07-18T21:42:12.101Z,14.51
2023-07-18T21:44:15.871Z,14.50
2023-07-18T21:46:19.738Z,14.48
2023-07-18T21:48:23.413Z,14.47
2023-07-18T21:50:27.897Z,14.45
2023-07-18T21:52:33.792Z,14.43
2023-07-18T21:54:36.540Z,14.43
2023-07-18T21:56:41.849Z,14.42
2023-07-18T21:58:45.048Z,14.36
2023-07-18T22:00:49.097Z,14.34
2023-07-18T22:02:52.915Z,14.32
2023-07-18T22:04:56.922Z,14.30
2023-07-18T22:07:00.968Z,14.27
2023-07-18T22:09:08.355Z,14.23
2023-07-18T22:11:13.220Z,14.24
2023-07-18T22:13:17.688Z,14.25
2023-07-18T22:15:22.101Z,14.25
2023-07-18T22:17:25.939Z,14.26
2023-07-18T22:19:29.000Z,14.27
2023-07-18T22:21:32.664Z,14.30
2023-07-18T22:23:36.553Z,14.31
2023-07-18T22:25:42.066Z,14.33
2023-07-18T22:27:46.078Z,14.33
2023-07-18T22:29:51.238Z,14.35
2023-07-18T22:31:55.570Z,14.38
2023-07-18T22:33:59.958Z,14.40
2023-07-18T22:36:06.213Z,14.39
2023-07-18T22:38:14.243Z,14.41
2023-07-18T22:40:20.262Z,14.42
2023-07-18T22:42:28.069Z,14.42
2023-07-18T22:44:34.402Z,14.42
2023-07-18T22:46:40.295Z,14.43
2023-07-18T22:48:45.073Z,14.43
2023-07-18T22:50:50.602Z,14.44
2023-07-18T22:52:54.726Z,14.42
2023-07-18T22:55:01.173Z,14.32
2023-07-18T22:57:06.673Z,14.27
2023-07-18T22:59:12.098Z,14.27
2023-07-18T23:01:19.470Z,14.28
2023-07-18T23:03:24.024Z,14.30
2023-07-18T23:05:27.963Z,14.32
2023-07-18T23:07:31.792Z,14.32
2023-07-18T23:09:37.205Z,14.33
2023-07-18T23:11:41.145Z,14.35
2023-07-18T23:13:48.228Z,14.35
2023-07-18T23:15:54.026Z,14.36
2023-07-18T23:17:59.114Z,14.36
2023-07-18T23:20:03.041Z,14.37
2023-07-18T23:22:09.029Z,14.35
2023-07-18T23:24:13.182Z,14.35
2023-07-18T23:26:16.739Z,14.36
2023-07-18T23:28:21.717Z,14.37
2023-07-18T23:30:25.109Z,14.38
2023-07-18T23:32:30.117Z,14.39
2023-07-18T23:34:33.856Z,14.42
2023-07-18T23:36:37.392Z,14.43
2023-07-18T23:38:42.286Z,14.44
2023-07-18T23:40:46.764Z,14.43
2023-07-18T23:42:49.987Z,14.45
2023-07-18T23:44:55.428Z,14.44
2023-07-18T23:46:58.690Z,14.44
2023-07-18T23:49:03.394Z,14.43
2023-07-18T23:51:06.816Z,14.44
2023-07-18T23:53:10.248Z,14.44
2023-07-18T23:55:12.594Z,14.45
2023-07-18T23:57:15.934Z,14.44
2023-07-18T23:59:19.473Z,14.44
